Sog Xian, China
Current Conditions -  °F | °C
As of 11:50 PM on Saturday 20 Dec 2014 (Local Time) from VNKT Reporting Station
Few Clouds Few Clouds  
Wind Chill: 45°   Ceiling: Unl
Heat Index: 45°   Visibility: 4mi
Dew Point: 39°   Wind: 3mph
Humidity: 81%   Direction: 110°ESE
Pressure: 30.12"   Gusts: NA
Location:  31.88°N, 93.78°E
Report Text: VNKT 201550Z 11003KT 6000 FEW020 07/04 Q1020 NOSIG
Loading
Personal Weather Stations






























Interactive Weather Map New forecast layout! Learn more

10-Day Weather Forecast

Advertisements
Track Severe Weather on mobile